This is the latest recevied weather packets stored in our database for station/object K6MLE. If no packets are shown the sender has not sent any weather packets the latest 10 day(s).
| Time | Temp. | Humidity | Pressure | Rain* | Wind** | Luminosity | Snow |
|---|---|---|---|---|---|---|---|
| 1777477816 | 10.56° C | 95% | 1018.4 hPa | 0 mm | - | - | - |
| 1777477217 | 10° C | 96% | 1018.4 hPa | 0 mm | - | - | - |
| 1777474816 | 7.22° C | 95% | 1018.1 hPa | 0 mm | - | - | - |
| 1777474216 | 6.67° C | 95% | 1018.1 hPa | 0 mm | - | - | - |
| 1777473616 | 6.11° C | 95% | 1018.2 hPa | 0 mm | - | - | - |
| 1777470036 | 5° C | 95% | 1018.4 hPa | 0 mm | - | - | - |
| 1777465816 | 4.44° C | 94% | 1018.5 hPa | 0 mm | - | - | - |
| 1777461016 | 5° C | 94% | 1018.5 hPa | 0 mm | - | - | - |
| 1777452017 | 6.11° C | 93% | 1018.9 hPa | 0 mm | - | - | - |
| 1777450817 | 6.11° C | 93% | 1018.9 hPa | 0 mm | - | - | - |
| 1777440617 | 8.33° C | 91% | 1018.6 hPa | 0 mm | - | - | - |
| 1777436417 | 9.44° C | 89% | 1018.2 hPa | 0 mm | - | - | - |
| 1777435217 | 10° C | 87% | 1018.2 hPa | 0 mm | - | - | - |
| 1777432217 | 11.67° C | 84% | 1017.4 hPa | 0 mm | - | - | - |
| 1777431017 | 12.22° C | 81% | 1017.2 hPa | 0 mm | - | - | - |
| 1777429217 | 12.78° C | 76% | 1017.1 hPa | 0 mm | - | - | - |
| 1777427417 | 13.89° C | 70% | 1017.2 hPa | 0 mm | - | - | - |
| 1777426837 | 14.44° C | 68% | 1017.4 hPa | 0 mm | - | - | - |
| 1777425617 | 15° C | 66% | 1017.6 hPa | 0 mm | - | - | - |
| 1777424417 | 15.56° C | 62% | 1017.7 hPa | 0 mm | - | - | - |
| 1777411216 | 16.67° C | 62% | 1018.5 hPa | 0 mm | - | - | - |
| 1777405816 | 16.67° C | 59% | 1019 hPa | 0 mm | - | - | - |
| 1777404016 | 16.67° C | 56% | 1019.3 hPa | 0 mm | - | - | - |
| 1777395016 | 13.33° C | 67% | 1019.9 hPa | 0 mm | - | - | - |
| 1777387836 | 5° C | 96% | 1018.6 hPa | 0 mm | - | - | - |
* Rain latest hour (hover to see other rain measurements)
** Current wind speed in m/s (hover to see current wind gust speed)